Time;durP1;ratioP1;P1;durP2;ratioP2;P2;SDS_P1;SDS_P2;PMS_P1;PMS_P2;Temp;Humidity;BMP_temperature;BMP_pressure;BME280_temperature;BME280_humidity;BME280_pressure;Samples;Min_cycle;Max_cycle;Signal;HPM_P1;HPM_P2
2021/05/20 00:02:24;;;;;;;12.10;6.80;;;8.30;99.90;;;;;;5065368;28;20096;-74
2021/05/20 00:04:50;;;;;;;15.95;7.50;;;8.30;99.90;;;;;;5065659;28;20033;-74
2021/05/20 00:07:15;;;;;;;15.75;7.75;;;8.20;99.90;;;;;;5065217;28;20131;-74
2021/05/20 00:09:41;;;;;;;15.35;7.82;;;8.20;99.90;;;;;;5065229;28;20032;-75
2021/05/20 00:12:08;;;;;;;16.15;7.90;;;8.20;99.90;;;;;;5065416;28;20024;-75
2021/05/20 00:14:33;;;;;;;17.55;9.18;;;8.20;99.90;;;;;;5065161;28;20021;-75
2021/05/20 00:16:59;;;;;;;13.65;7.97;;;8.10;99.90;;;;;;5064889;28;20116;-74
2021/05/20 00:19:25;;;;;;;19.17;8.02;;;8.20;99.90;;;;;;5064919;28;20036;-74
2021/05/20 00:21:51;;;;;;;17.48;8.27;;;8.10;99.90;;;;;;5064096;28;20029;-74
2021/05/20 00:24:17;;;;;;;18.35;9.02;;;8.10;99.90;;;;;;5064666;28;20020;-74
2021/05/20 00:26:42;;;;;;;18.42;9.30;;;8.10;99.90;;;;;;5064831;28;20090;-74
2021/05/20 00:29:08;;;;;;;15.88;8.52;;;8.00;99.90;;;;;;5064794;28;20053;-75
2021/05/20 00:31:34;;;;;;;24.92;9.52;;;8.00;99.90;;;;;;5065365;28;20021;-75
2021/05/20 00:34:00;;;;;;;17.35;8.57;;;8.00;99.90;;;;;;5064448;28;20039;-74
2021/05/20 00:36:25;;;;;;;18.77;9.18;;;7.90;99.90;;;;;;5064270;28;20076;-74
2021/05/20 00:38:51;;;;;;;18.65;8.23;;;7.90;99.90;;;;;;5064849;28;20432;-75
2021/05/20 00:41:16;;;;;;;17.10;9.13;;;7.90;99.90;;;;;;5064967;28;20025;-75
2021/05/20 00:43:43;;;;;;;17.10;7.95;;;7.80;99.90;;;;;;5079962;28;20055;-75
2021/05/20 00:46:09;;;;;;;15.02;7.95;;;7.80;99.90;;;;;;5064995;28;20032;-76
2021/05/20 00:48:34;;;;;;;16.92;8.25;;;7.80;99.90;;;;;;5079654;28;20030;-76
2021/05/20 00:51:00;;;;;;;17.38;8.68;;;7.80;99.90;;;;;;5064608;28;20032;-75
2021/05/20 00:53:27;;;;;;;14.07;7.38;;;7.70;99.90;;;;;;5064476;28;20474;-74
2021/05/20 00:55:53;;;;;;;14.23;8.02;;;7.70;99.90;;;;;;5064520;28;20513;-74
2021/05/20 00:58:20;;;;;;;16.80;7.30;;;7.70;99.90;;;;;;5079376;28;20116;-75
2021/05/20 01:00:49;;;;;;;14.30;7.50;;;7.60;99.90;;;;;;5079941;28;20021;-74
2021/05/20 01:03:15;;;;;;;14.07;7.38;;;7.60;99.90;;;;;;5064437;28;20017;-74
2021/05/20 01:05:41;;;;;;;14.00;8.02;;;7.60;99.90;;;;;;5064174;28;20032;-75
2021/05/20 01:08:06;;;;;;;15.35;8.45;;;7.60;99.90;;;;;;5064804;28;20432;-74
2021/05/20 01:10:32;;;;;;;19.20;7.88;;;7.50;99.90;;;;;;5064386;28;20131;-75
2021/05/20 01:12:58;;;;;;;13.93;7.22;;;7.50;99.90;;;;;;5064407;28;20021;-74
2021/05/20 01:15:29;;;;;;;15.82;7.32;;;7.50;99.90;;;;;;5064568;28;20047;-75
2021/05/20 01:17:57;;;;;;;10.90;6.43;;;7.40;99.90;;;;;;5063105;28;20040;-74
2021/05/20 01:20:27;;;;;;;15.95;7.53;;;7.50;99.90;;;;;;5064020;28;20028;-75
2021/05/20 01:23:02;;;;;;;12.55;6.00;;;7.40;99.90;;;;;;5079670;28;20044;-75
2021/05/20 01:25:28;;;;;;;13.90;6.88;;;7.40;99.90;;;;;;5064464;28;20100;-76
2021/05/20 01:27:55;;;;;;;17.58;7.15;;;7.40;99.90;;;;;;5066548;28;20040;-74
2021/05/20 01:30:20;;;;;;;15.43;6.65;;;7.40;99.90;;;;;;5068457;28;20037;-74
2021/05/20 01:32:46;;;;;;;16.70;6.82;;;7.40;99.90;;;;;;5068330;28;20025;-75
2021/05/20 01:35:12;;;;;;;11.00;5.50;;;7.40;99.90;;;;;;5068251;28;20082;-75
2021/05/20 01:37:37;;;;;;;16.30;6.93;;;7.40;99.90;;;;;;5068201;28;20044;-75
2021/05/20 01:40:04;;;;;;;9.27;5.68;;;7.40;99.90;;;;;;5068074;28;20025;-75
2021/05/20 01:42:29;;;;;;;14.50;6.03;;;7.40;99.90;;;;;;5068409;28;20033;-74
2021/05/20 01:44:55;;;;;;;13.68;6.53;;;7.40;99.90;;;;;;5068277;28;20024;-74
2021/05/20 01:47:20;;;;;;;13.25;6.60;;;7.50;99.90;;;;;;5067883;28;20029;-74
2021/05/20 01:49:51;;;;;;;13.10;7.20;;;7.50;99.90;;;;;;5068278;28;20029;-74
2021/05/20 01:52:18;;;;;;;14.35;6.25;;;7.40;99.90;;;;;;5083654;28;20049;-74
2021/05/20 01:54:43;;;;;;;17.25;6.55;;;7.60;99.90;;;;;;5067663;28;20040;-75
2021/05/20 01:57:09;;;;;;;13.13;6.85;;;7.40;99.90;;;;;;5067976;28;20037;-75
2021/05/20 01:59:35;;;;;;;14.32;6.15;;;7.40;99.90;;;;;;5067965;28;20485;-75
2021/05/20 02:02:00;;;;;;;15.30;6.00;;;7.30;99.90;;;;;;5083066;28;20078;-75
2021/05/20 02:04:26;;;;;;;13.15;6.95;;;7.30;99.90;;;;;;5066764;28;20067;-75
2021/05/20 02:06:51;;;;;;;9.65;5.75;;;7.30;99.90;;;;;;5067788;28;20024;-75
2021/05/20 02:09:17;;;;;;;11.75;6.32;;;7.20;99.90;;;;;;5082864;28;20097;-75
2021/05/20 02:11:42;;;;;;;9.43;5.57;;;7.20;99.90;;;;;;5083024;28;20032;-75
2021/05/20 02:14:08;;;;;;;10.60;5.57;;;7.20;99.90;;;;;;5082843;28;20025;-75
2021/05/20 02:16:34;;;;;;;10.00;5.78;;;7.20;99.90;;;;;;5067306;28;20044;-75
2021/05/20 02:19:00;;;;;;;13.82;6.88;;;7.20;99.90;;;;;;5083202;28;20037;-75
2021/05/20 02:21:26;;;;;;;12.73;5.50;;;7.20;99.90;;;;;;5067655;28;20045;-74
2021/05/20 02:23:51;;;;;;;12.48;5.82;;;7.20;99.90;;;;;;5082566;28;20116;-74
2021/05/20 02:26:17;;;;;;;13.10;5.97;;;7.10;99.90;;;;;;5067347;28;20025;-76
2021/05/20 02:28:42;;;;;;;14.02;7.07;;;7.20;99.90;;;;;;5082717;28;20033;-75
2021/05/20 02:31:08;;;;;;;14.18;7.45;;;7.20;99.90;;;;;;5067201;28;20029;-75
2021/05/20 02:33:34;;;;;;;9.35;5.78;;;7.10;99.90;;;;;;5067645;28;20033;-75
2021/05/20 02:35:59;;;;;;;12.90;6.97;;;7.10;99.90;;;;;;5067204;28;20449;-74
2021/05/20 02:38:25;;;;;;;11.23;5.82;;;7.10;99.90;;;;;;5065966;28;20029;-75
2021/05/20 02:40:51;;;;;;;10.88;6.03;;;7.10;99.90;;;;;;5082439;28;20114;-75
2021/05/20 02:43:16;;;;;;;10.10;5.95;;;7.00;99.90;;;;;;5066837;28;20037;-75
2021/05/20 02:45:42;;;;;;;13.00;6.50;;;7.00;99.90;;;;;;5066802;28;20029;-74
2021/05/20 02:48:08;;;;;;;11.82;6.97;;;7.00;99.90;;;;;;5082547;28;20425;-75
2021/05/20 02:50:34;;;;;;;17.75;6.07;;;7.00;99.90;;;;;;5082460;28;20033;-75
2021/05/20 02:52:59;;;;;;;10.60;6.25;;;6.90;99.90;;;;;;5066798;28;20072;-76
2021/05/20 02:55:25;;;;;;;20.15;7.00;;;6.90;99.90;;;;;;5067028;28;20091;-75
2021/05/20 02:57:54;;;;;;;13.80;6.78;;;6.90;99.90;;;;;;5065137;28;20049;-75
2021/05/20 03:00:21;;;;;;;10.43;6.18;;;6.90;99.90;;;;;;5082027;28;20610;-75
2021/05/20 03:02:48;;;;;;;11.45;5.90;;;6.90;99.90;;;;;;5066761;28;20025;-75
2021/05/20 03:05:13;;;;;;;11.05;6.10;;;6.80;99.90;;;;;;5081889;28;20032;-75
2021/05/20 03:07:39;;;;;;;10.60;6.07;;;6.80;99.90;;;;;;5066571;28;20036;-75
2021/05/20 03:10:06;;;;;;;11.43;6.28;;;6.80;99.90;;;;;;5066828;28;20386;-75
2021/05/20 03:12:33;;;;;;;12.82;5.43;;;6.80;99.90;;;;;;5081621;28;20029;-77
2021/05/20 03:14:58;;;;;;;12.70;5.47;;;6.80;99.90;;;;;;5066768;28;20606;-74
2021/05/20 03:17:24;;;;;;;10.52;6.43;;;6.80;99.90;;;;;;5066239;28;20091;-75
2021/05/20 03:19:50;;;;;;;10.27;5.90;;;6.80;99.90;;;;;;5065982;28;20029;-75
2021/05/20 03:22:16;;;;;;;11.65;5.88;;;6.90;99.90;;;;;;5066533;28;20017;-75
2021/05/20 03:24:42;;;;;;;12.63;5.75;;;6.80;99.90;;;;;;5066123;28;20029;-75
2021/05/20 03:27:07;;;;;;;15.63;6.40;;;6.90;99.90;;;;;;5066098;28;20047;-78
2021/05/20 03:29:33;;;;;;;11.57;5.75;;;6.90;99.90;;;;;;5065334;28;20096;-76
2021/05/20 03:31:59;;;;;;;8.00;4.88;;;7.00;99.90;;;;;;5066513;28;20091;-76
2021/05/20 03:34:24;;;;;;;10.95;5.28;;;7.00;99.90;;;;;;5066024;28;20033;-76
2021/05/20 03:36:50;;;;;;;15.35;6.82;;;7.00;99.90;;;;;;5066122;28;20543;-75
2021/05/20 03:39:16;;;;;;;9.40;5.60;;;7.10;99.90;;;;;;5065876;28;20033;-75
2021/05/20 03:41:41;;;;;;;12.55;6.88;;;7.10;99.90;;;;;;5065752;28;20025;-76
2021/05/20 03:44:07;;;;;;;9.30;5.85;;;7.20;99.90;;;;;;5065975;28;20056;-76
2021/05/20 03:46:33;;;;;;;10.82;5.50;;;7.20;99.90;;;;;;5081265;28;20037;-77
2021/05/20 03:48:59;;;;;;;12.50;5.78;;;7.30;99.90;;;;;;5066019;28;20033;-76
2021/05/20 03:51:24;;;;;;;13.10;5.70;;;7.30;99.90;;;;;;5063769;28;20428;-76
2021/05/20 03:53:50;;;;;;;11.05;5.90;;;7.30;99.90;;;;;;5065430;28;20124;-75
2021/05/20 03:56:16;;;;;;;16.85;7.18;;;7.30;99.90;;;;;;5065437;28;20045;-76
2021/05/20 03:58:41;;;;;;;12.98;6.05;;;7.30;99.90;;;;;;5065843;28;20095;-76
2021/05/20 04:01:07;;;;;;;8.30;5.05;;;7.30;99.90;;;;;;5080542;28;20025;-76
2021/05/20 04:03:33;;;;;;;10.25;5.28;;;7.30;99.90;;;;;;5065521;28;20105;-75
2021/05/20 04:06:03;;;;;;;11.20;5.97;;;7.30;99.90;;;;;;5065695;28;20044;-75
2021/05/20 04:08:29;;;;;;;7.30;4.57;;;7.30;99.90;;;;;;5065422;28;20025;-76
2021/05/20 04:10:55;;;;;;;10.27;5.57;;;7.30;99.90;;;;;;5065407;28;20021;-76
2021/05/20 04:13:33;;;;;;;8.27;5.43;;;7.40;99.90;;;;;;5080659;28;20464;-76
2021/05/20 04:15:59;;;;;;;9.77;5.07;;;7.40;99.90;;;;;;5080779;28;20118;-76
2021/05/20 04:18:25;;;;;;;8.07;4.47;;;7.30;99.90;;;;;;5080638;28;20043;-76
2021/05/20 04:20:52;;;;;;;7.78;4.82;;;7.40;99.90;;;;;;5065449;28;20029;-76
2021/05/20 04:23:18;;;;;;;5.20;3.38;;;7.40;99.90;;;;;;5064894;28;20033;-76
2021/05/20 04:25:45;;;;;;;6.32;4.32;;;7.40;99.90;;;;;;5065122;28;20021;-75
2021/05/20 04:28:11;;;;;;;7.00;4.15;;;7.50;99.90;;;;;;5065076;28;20078;-75
2021/05/20 04:30:37;;;;;;;8.60;4.35;;;7.40;99.90;;;;;;5064686;28;20032;-76
2021/05/20 04:33:04;;;;;;;10.30;4.60;;;7.50;99.90;;;;;;5065225;28;20029;-75
2021/05/20 04:35:30;;;;;;;10.00;4.45;;;7.50;99.90;;;;;;5064965;28;20040;-76
2021/05/20 04:37:55;;;;;;;10.25;4.57;;;7.50;99.90;;;;;;5080176;28;20056;-75
2021/05/20 04:40:21;;;;;;;9.93;4.97;;;7.50;99.90;;;;;;5080269;28;20495;-76
2021/05/20 04:42:47;;;;;;;11.73;4.97;;;7.50;99.90;;;;;;5064494;28;20033;-76
2021/05/20 04:45:13;;;;;;;7.15;3.90;;;7.60;99.90;;;;;;5064821;28;20496;-75
2021/05/20 04:47:38;;;;;;;7.57;4.35;;;7.60;99.90;;;;;;5064884;28;20435;-76
2021/05/20 04:50:05;;;;;;;8.40;5.00;;;7.60;99.90;;;;;;5080034;28;20025;-76
2021/05/20 04:52:31;;;;;;;11.90;5.25;;;7.60;99.90;;;;;;5064323;28;20170;-77
2021/05/20 04:54:57;;;;;;;9.88;4.95;;;7.60;99.90;;;;;;5064697;28;20461;-76
2021/05/20 04:57:23;;;;;;;12.23;5.55;;;7.70;99.90;;;;;;5079981;28;20071;-76
2021/05/20 04:59:48;;;;;;;11.55;5.75;;;7.70;99.90;;;;;;5080231;28;20025;-75
2021/05/20 05:02:14;;;;;;;8.02;4.80;;;7.80;99.90;;;;;;5063658;28;20067;-77
2021/05/20 05:04:39;;;;;;;8.32;4.68;;;7.70;99.90;;;;;;5062988;28;20043;-76
2021/05/20 05:07:05;;;;;;;9.10;4.95;;;7.80;99.90;;;;;;5064571;28;20025;-76
2021/05/20 05:09:31;;;;;;;9.13;4.32;;;7.80;99.90;;;;;;5079622;28;20064;-77
2021/05/20 05:11:56;;;;;;;6.78;4.53;;;7.80;99.90;;;;;;5064301;28;20044;-77
2021/05/20 05:14:22;;;;;;;8.00;4.22;;;7.80;99.90;;;;;;5064407;28;20040;-77
2021/05/20 05:16:47;;;;;;;6.78;4.85;;;7.80;99.90;;;;;;5064050;28;20061;-77
2021/05/20 05:19:13;;;;;;;7.95;4.63;;;7.90;99.90;;;;;;5064390;28;20040;-77
2021/05/20 05:21:39;;;;;;;10.13;4.95;;;7.90;99.90;;;;;;5064715;28;20116;-77
2021/05/20 05:24:05;;;;;;;9.23;5.30;;;7.90;99.90;;;;;;5062784;28;20040;-75
2021/05/20 05:26:31;;;;;;;10.65;5.60;;;7.90;99.90;;;;;;5064567;28;20100;-76
2021/05/20 05:28:57;;;;;;;8.13;4.65;;;8.00;99.90;;;;;;5064458;28;20029;-75
2021/05/20 05:31:25;;;;;;;9.88;6.43;;;8.00;99.90;;;;;;5064116;28;20068;-77
2021/05/20 05:33:51;;;;;;;10.50;5.68;;;8.00;99.90;;;;;;5064195;28;20059;-77
2021/05/20 05:36:17;;;;;;;11.68;6.90;;;8.10;99.90;;;;;;5079590;28;20045;-77
2021/05/20 05:38:42;;;;;;;10.52;5.90;;;8.10;99.90;;;;;;5063624;28;20150;-75
2021/05/20 05:41:08;;;;;;;9.85;6.03;;;8.30;99.90;;;;;;5064004;28;20476;-77
2021/05/20 05:43:34;;;;;;;13.65;7.05;;;8.30;99.90;;;;;;5063982;28;20106;-80
2021/05/20 05:45:59;;;;;;;14.55;6.03;;;8.30;99.90;;;;;;5079825;28;20036;-76
2021/05/20 05:48:25;;;;;;;17.58;7.32;;;8.40;99.90;;;;;;5069779;28;20035;-77
2021/05/20 05:50:53;;;;;;;16.58;7.00;;;8.50;99.90;;;;;;5083663;28;20063;-75
2021/05/20 07:59:21;;;;;;;14.48;6.82;;;12.60;99.90;;;;;;5425274;23;20080;-72
2021/05/20 08:05:29;;;;;;;8.65;5.72;;;12.70;99.90;;;;;;5024807;28;20124;-73
2021/05/20 08:08:16;;;;;;;12.73;7.88;;;12.70;99.90;;;;;;5025633;28;20060;-74
2021/05/20 08:10:55;;;;;;;14.75;6.88;;;12.80;99.90;;;;;;5025529;28;20025;-73
2021/05/20 08:13:21;;;;;;;11.02;5.88;;;12.80;99.90;;;;;;5025515;28;20026;-73
2021/05/20 08:16:00;;;;;;;13.63;6.78;;;12.80;99.90;;;;;;5025019;28;20037;-74
2021/05/20 08:18:27;;;;;;;10.80;5.80;;;12.70;99.90;;;;;;5024879;28;20106;-74
2021/05/20 08:20:53;;;;;;;13.45;5.72;;;12.70;99.90;;;;;;5024622;28;20025;-76
2021/05/20 08:23:19;;;;;;;17.13;6.13;;;12.70;99.90;;;;;;5022798;28;20076;-77
2021/05/20 08:25:44;;;;;;;11.70;5.70;;;12.80;99.90;;;;;;5023064;28;20081;-72
2021/05/20 08:28:10;;;;;;;8.93;4.80;;;12.90;99.90;;;;;;5023998;28;20124;-75
2021/05/20 08:30:37;;;;;;;12.15;5.47;;;12.90;99.90;;;;;;5024144;28;20026;-78
2021/05/20 08:33:03;;;;;;;11.23;5.78;;;12.80;99.90;;;;;;5022786;28;20057;-72
2021/05/20 08:35:28;;;;;;;9.27;5.35;;;12.80;99.90;;;;;;5023962;28;20026;-75
2021/05/20 08:37:54;;;;;;;10.75;5.57;;;12.60;99.90;;;;;;5024531;28;20030;-76
2021/05/20 08:40:20;;;;;;;8.57;4.45;;;12.70;99.90;;;;;;5023462;28;20030;-76
2021/05/20 08:42:46;;;;;;;15.57;5.57;;;12.90;99.90;;;;;;5025253;28;20437;-74
2021/05/20 08:45:17;;;;;;;8.23;4.50;;;13.20;99.90;;;;;;5024765;28;20057;-74
2021/05/20 08:47:45;;;;;;;11.80;5.13;;;13.40;99.90;;;;;;5023293;28;20111;-78
2021/05/20 08:50:12;;;;;;;7.13;4.13;;;13.60;99.90;;;;;;5024813;28;20026;-78
2021/05/20 08:52:39;;;;;;;9.68;4.78;;;13.90;99.90;;;;;;5024280;28;20026;-76
2021/05/20 08:55:10;;;;;;;11.35;4.60;;;14.10;99.90;;;;;;5024853;28;20026;-69
2021/05/20 08:57:36;;;;;;;4.57;2.40;;;14.20;99.90;;;;;;5022020;28;20058;-74
2021/05/20 09:00:04;;;;;;;14.60;3.75;;;14.10;99.90;;;;;;5014968;28;20060;-74
2021/05/20 09:02:31;;;;;;;4.35;3.10;;;14.10;99.90;;;;;;5028962;28;20026;-73
2021/05/20 09:05:05;;;;;;;7.68;4.00;;;14.20;99.90;;;;;;5032239;28;20022;-75
2021/05/20 09:07:35;;;;;;;19.55;4.38;;;14.40;99.90;;;;;;5029760;28;20029;-73
2021/05/20 09:10:24;;;;;;;5.38;3.10;;;14.50;99.90;;;;;;5028099;28;20495;-73
2021/05/20 09:12:59;;;;;;;6.15;3.45;;;14.60;99.90;;;;;;5023070;28;20030;-74
2021/05/20 09:15:32;;;;;;;4.28;2.85;;;14.60;99.90;;;;;;5025115;28;20026;-72
2021/05/20 09:18:16;;;;;;;5.90;2.83;;;14.70;99.90;;;;;;5007352;28;20440;-72
2021/05/20 09:20:53;;;;;;;8.30;2.80;;;14.90;99.90;;;;;;5030359;28;20026;-72
2021/05/20 09:23:21;;;;;;;7.30;3.38;;;15.20;99.90;;;;;;5015038;28;20179;-77
2021/05/20 09:25:49;;;;;;;6.85;3.47;;;15.40;99.90;;;;;;5024412;28;20018;-74
2021/05/20 09:28:17;;;;;;;4.00;3.03;;;15.40;99.90;;;;;;5043147;28;20060;-78
2021/05/20 09:30:45;;;;;;;5.13;2.80;;;15.20;99.90;;;;;;5043795;28;20025;-77
2021/05/20 09:33:16;;;;;;;4.13;2.80;;;15.20;99.90;;;;;;5044512;28;20030;-75
2021/05/20 09:35:49;;;;;;;6.85;2.85;;;15.30;99.90;;;;;;5027275;28;20037;-77
2021/05/20 09:38:18;;;;;;;10.80;2.85;;;15.30;99.90;;;;;;5023767;28;20045;-75
2021/05/20 09:41:14;;;;;;;6.13;2.40;;;15.40;99.90;;;;;;5034475;28;20033;-74
2021/05/20 09:43:42;;;;;;;7.75;2.90;;;15.60;99.90;;;;;;5026928;28;20041;-80
2021/05/20 09:46:13;;;;;;;6.15;2.40;;;15.50;99.90;;;;;;5042667;28;20022;-74
2021/05/20 09:48:40;;;;;;;5.95;1.88;;;15.60;99.90;;;;;;5027354;28;20040;-78
2021/05/20 09:51:19;;;;;;;3.38;1.90;;;15.70;99.90;;;;;;5029423;28;20033;-72
2021/05/20 09:53:48;;;;;;;2.20;1.63;;;15.80;99.90;;;;;;5047582;28;20029;-75
2021/05/20 09:56:13;;;;;;;1.98;1.38;;;15.90;99.90;;;;;;5029201;28;20037;-73
2021/05/20 09:58:39;;;;;;;4.53;1.60;;;16.10;99.90;;;;;;5047414;28;20025;-75
2021/05/20 10:01:18;;;;;;;4.25;1.77;;;15.90;99.90;;;;;;5046786;28;20049;-74
2021/05/20 10:03:51;;;;;;;2.45;1.58;;;16.00;99.90;;;;;;5046803;28;20052;-77
2021/05/20 10:06:37;;;;;;;3.83;1.52;;;15.80;99.90;;;;;;5047473;28;20063;-75
2021/05/20 10:09:11;;;;;;;2.47;1.85;;;15.90;99.90;;;;;;5047591;28;20022;-74
2021/05/20 10:11:38;;;;;;;2.38;1.60;;;16.00;99.90;;;;;;5029702;28;20064;-74
2021/05/20 10:14:05;;;;;;;3.13;2.08;;;16.30;99.90;;;;;;5029343;28;20033;-75
2021/05/20 10:16:33;;;;;;;1.63;1.20;;;16.50;99.90;;;;;;5047079;28;20061;-79
2021/05/20 10:18:59;;;;;;;3.85;1.10;;;16.60;99.90;;;;;;5047908;28;20033;-75
2021/05/20 10:21:28;;;;;;;3.72;1.83;;;16.80;99.90;;;;;;5030039;28;20033;-78
2021/05/20 10:23:54;;;;;;;5.72;2.53;;;16.80;99.90;;;;;;5044818;28;20052;-75
2021/05/20 10:26:21;;;;;;;8.05;2.13;;;16.60;99.90;;;;;;5046648;28;20018;-71
2021/05/20 10:28:48;;;;;;;2.63;1.50;;;16.40;99.90;;;;;;5029483;28;20100;-74
2021/05/20 10:31:15;;;;;;;2.20;1.52;;;16.30;99.90;;;;;;5047243;28;20029;-74
2021/05/20 10:33:42;;;;;;;8.55;2.00;;;16.10;99.90;;;;;;5024902;28;20094;-75
2021/05/20 10:36:24;;;;;;;2.60;1.40;;;16.00;99.90;;;;;;5025680;28;20038;-74
2021/05/20 10:38:50;;;;;;;6.53;1.85;;;15.90;99.90;;;;;;5043596;28;20029;-75
2021/05/20 10:41:20;;;;;;;2.15;1.38;;;16.00;99.90;;;;;;5042766;28;20030;-74
2021/05/20 10:44:07;;;;;;;3.08;1.40;;;16.00;99.90;;;;;;5027081;28;20033;-73
2021/05/20 10:46:53;;;;;;;2.60;1.60;;;16.20;99.90;;;;;;5025660;28;20030;-73
2021/05/20 10:49:21;;;;;;;1.70;1.30;;;16.30;99.90;;;;;;5027347;28;20053;-78
2021/05/20 10:51:47;;;;;;;2.15;1.50;;;16.20;99.90;;;;;;5027287;28;20053;-75
2021/05/20 10:54:15;;;;;;;1.33;1.23;;;16.20;99.90;;;;;;5008361;28;20473;-75
2021/05/20 10:56:48;;;;;;;8.82;1.50;;;16.30;99.90;;;;;;5026506;28;20042;-80
2021/05/20 10:59:35;;;;;;;2.20;1.40;;;16.60;99.90;;;;;;5024929;28;20033;-77
2021/05/20 11:02:00;;;;;;;2.70;1.83;;;17.10;99.90;;;;;;5025940;28;20045;-74
2021/05/20 11:04:42;;;;;;;1.75;1.40;;;17.50;99.90;;;;;;5009222;28;20428;-79
2021/05/20 11:07:08;;;;;;;2.45;1.27;;;17.90;99.90;;;;;;5027032;28;20025;-78
2021/05/20 11:10:09;;;;;;;5.78;1.88;;;18.40;99.90;;;;;;5008713;28;20029;-77
2021/05/20 11:12:55;;;;;;;1.80;1.08;;;18.60;99.90;;;;;;5009048;28;20049;-75
2021/05/20 11:15:21;;;;;;;4.03;0.80;;;18.40;99.90;;;;;;5009465;28;20030;-73
2021/05/20 11:17:47;;;;;;;1.25;0.80;;;18.40;99.90;;;;;;5008018;28;20109;-74
2021/05/20 11:20:26;;;;;;;2.13;0.75;;;18.50;99.90;;;;;;5025593;28;20040;-76
2021/05/20 11:23:18;;;;;;;1.27;0.85;;;18.80;99.90;;;;;;5027197;28;20026;-72
2021/05/20 11:25:45;;;;;;;0.73;0.55;;;19.10;99.90;;;;;;5008545;28;20061;-77
2021/05/20 11:28:11;;;;;;;1.45;0.93;;;19.30;99.90;;;;;;5026899;28;20033;-74
2021/05/20 11:30:37;;;;;;;3.33;1.33;;;19.30;99.90;;;;;;5008921;28;20026;-76
2021/05/20 11:33:05;;;;;;;0.93;0.70;;;19.10;99.90;;;;;;5008562;28;20030;-73
2021/05/20 11:37:59;;;;;;;1.08;0.77;;;19.00;99.90;;;;;;5025603;28;20072;-74
2021/05/20 11:40:26;;;;;;;1.15;0.90;;;18.80;99.90;;;;;;5025616;28;20018;-71
2021/05/20 11:42:55;;;;;;;1.92;1.00;;;18.60;99.90;;;;;;5026375;28;20121;-74
2021/05/20 11:45:26;;;;;;;1.00;0.80;;;18.50;99.90;;;;;;5026218;28;20107;-71
2021/05/20 11:47:53;;;;;;;0.73;0.60;;;18.40;99.90;;;;;;5008499;28;20485;-70
2021/05/20 11:50:19;;;;;;;2.10;1.20;;;18.50;99.90;;;;;;5008681;28;20075;-76
2021/05/20 11:52:45;;;;;;;1.38;0.80;;;18.60;99.90;;;;;;5008116;28;20026;-77
2021/05/20 11:55:11;;;;;;;3.60;1.52;;;18.80;99.90;;;;;;5026144;28;20021;-72
2021/05/20 11:57:36;;;;;;;1.23;0.90;;;18.60;99.90;;;;;;5024666;28;20042;-75
2021/05/20 12:00:03;;;;;;;1.77;1.17;;;18.20;99.90;;;;;;5020610;28;20061;-75
2021/05/20 12:02:33;;;;;;;1.98;1.10;;;17.90;99.90;;;;;;5005653;28;20109;-78
2021/05/20 12:05:06;;;;;;;11.38;1.60;;;17.70;99.90;;;;;;5006272;28;20096;-76
2021/05/20 12:07:32;;;;;;;1.73;1.17;;;18.20;99.90;;;;;;5021247;28;20030;-73
2021/05/20 12:10:12;;;;;;;3.03;1.55;;;18.90;99.90;;;;;;5006288;28;20029;-72
2021/05/20 12:12:39;;;;;;;0.93;0.90;;;19.40;99.90;;;;;;5005222;28;20030;-77
2021/05/20 12:15:18;;;;;;;1.00;0.73;;;19.90;99.90;;;;;;5023377;28;20026;-75
2021/05/20 12:17:45;;;;;;;1.95;1.27;;;19.80;99.90;;;;;;5022556;28;20034;-75
2021/05/20 12:20:12;;;;;;;2.28;1.25;;;19.50;99.90;;;;;;5025291;28;20482;-75
2021/05/20 12:22:39;;;;;;;2.72;1.33;;;18.90;99.90;;;;;;5023361;28;20026;-74
2021/05/20 12:25:10;;;;;;;2.53;1.17;;;18.70;99.90;;;;;;5025581;28;20033;-76
2021/05/20 12:27:36;;;;;;;3.00;1.20;;;18.30;99.90;;;;;;5025090;28;20042;-77
2021/05/20 12:30:07;;;;;;;1.77;1.02;;;18.10;99.90;;;;;;5025341;28;20026;-74
2021/05/20 12:32:41;;;;;;;2.67;1.30;;;18.30;99.90;;;;;;5023918;28;20389;-71
2021/05/20 12:35:13;;;;;;;2.63;1.00;;;18.50;99.90;;;;;;5025091;28;20037;-75
2021/05/20 12:38:09;;;;;;;0.60;0.60;;;18.90;99.90;;;;;;5025205;28;20084;-72
2021/05/20 12:40:42;;;;;;;1.08;0.70;;;19.40;99.90;;;;;;5023245;28;20038;-76
2021/05/20 12:43:35;;;;;;;2.83;1.13;;;19.80;99.90;;;;;;5022374;28;20034;-74
2021/05/20 12:46:05;;;;;;;2.35;1.25;;;20.10;99.90;;;;;;5016232;28;20064;-79
2021/05/20 12:48:55;;;;;;;0.68;0.60;;;20.20;99.90;;;;;;5024220;28;20045;-72
2021/05/20 12:51:26;;;;;;;2.47;0.82;;;20.40;99.80;;;;;;5024911;28;20030;-75
2021/05/20 12:53:53;;;;;;;1.45;0.90;;;20.40;99.90;;;;;;5024556;28;20114;-75
2021/05/20 12:56:22;;;;;;;1.02;0.70;;;20.60;99.90;;;;;;5024379;28;20061;-73
2021/05/20 12:58:52;;;;;;;1.05;0.73;;;20.90;98.50;;;;;;5025076;28;20030;-77
2021/05/20 13:01:19;;;;;;;0.93;0.80;;;21.10;99.90;;;;;;5039875;28;20046;-74
2021/05/20 13:03:47;;;;;;;0.70;0.63;;;20.90;99.90;;;;;;5026742;28;20035;-71
2021/05/20 13:06:21;;;;;;;1.48;1.10;;;20.60;99.90;;;;;;5026808;28;20092;-75
2021/05/20 13:08:46;;;;;;;0.70;0.70;;;20.60;98.20;;;;;;5044461;28;20079;-74
2021/05/20 13:11:24;;;;;;;3.53;1.27;;;20.10;99.90;;;;;;5026625;28;20033;-74
2021/05/20 13:13:52;;;;;;;3.38;1.00;;;19.90;99.90;;;;;;5025962;28;20053;-77
2021/05/20 13:22:21;;;;;;;5.80;1.38;;;19.20;99.10;;;;;;5014151;28;20490;-80
2021/05/20 13:24:49;;;;;;;3.03;1.40;;;19.10;99.90;;;;;;5006452;28;20034;-76
2021/05/20 13:27:16;;;;;;;5.53;1.63;;;19.40;99.90;;;;;;5024794;28;20033;-73
2021/05/20 13:29:48;;;;;;;3.95;1.65;;;19.80;99.90;;;;;;5024053;28;20034;-73
2021/05/20 13:32:23;;;;;;;2.85;1.83;;;20.30;99.90;;;;;;5024465;28;20080;-76
2021/05/20 13:34:48;;;;;;;2.47;2.15;;;20.70;99.90;;;;;;5024880;28;20026;-76
2021/05/20 13:37:15;;;;;;;2.88;1.65;;;20.50;99.90;;;;;;5022604;28;20071;-74
2021/05/20 13:39:41;;;;;;;3.83;2.03;;;20.50;99.90;;;;;;5024231;28;20084;-74
2021/05/20 13:42:07;;;;;;;2.95;1.95;;;20.60;99.90;;;;;;5006963;28;20029;-73
2021/05/20 13:44:34;;;;;;;3.17;1.42;;;20.30;99.60;;;;;;5006341;28;20438;-74
2021/05/20 13:46:59;;;;;;;2.20;1.60;;;20.00;99.90;;;;;;5024389;28;20053;-76
2021/05/20 13:49:25;;;;;;;1.67;1.23;;;20.10;99.90;;;;;;5006780;28;20022;-74
2021/05/20 13:51:55;;;;;;;4.75;1.65;;;20.30;99.90;;;;;;5024558;28;20026;-71
2021/05/20 13:54:21;;;;;;;3.67;1.85;;;20.40;99.50;;;;;;5006780;28;20390;-74
2021/05/20 13:56:46;;;;;;;1.92;1.38;;;20.70;99.10;;;;;;5024340;28;20050;-75
2021/05/20 13:59:15;;;;;;;3.75;1.83;;;20.70;99.20;;;;;;5023912;28;20033;-78
2021/05/20 14:01:44;;;;;;;2.15;1.38;;;21.00;99.20;;;;;;5002762;28;20565;-74
2021/05/20 14:04:11;;;;;;;1.90;1.17;;;20.90;99.80;;;;;;5002837;28;20037;-73
2021/05/20 14:06:37;;;;;;;1.70;1.00;;;20.80;97.70;;;;;;5001768;28;20037;-80
2021/05/20 14:09:04;;;;;;;2.28;1.20;;;20.50;98.80;;;;;;5002053;28;20026;-76
2021/05/20 14:11:30;;;;;;;1.75;0.95;;;20.40;99.90;;;;;;5003285;28;20098;-76
2021/05/20 14:13:56;;;;;;;1.17;0.88;;;20.70;98.90;;;;;;5017981;28;20033;-77
2021/05/20 14:16:23;;;;;;;0.77;0.68;;;21.00;98.20;;;;;;5022816;28;20383;-74
2021/05/20 14:18:49;;;;;;;1.10;0.70;;;21.30;98.70;;;;;;5023000;28;20040;-72
2021/05/20 14:21:20;;;;;;;1.58;0.85;;;21.60;97.40;;;;;;5023146;28;20105;-76
2021/05/20 14:23:46;;;;;;;2.95;0.90;;;22.00;94.70;;;;;;5024044;28;20405;-76
2021/05/20 14:26:12;;;;;;;2.20;0.75;;;22.00;94.70;;;;;;5024255;28;20026;-72
2021/05/20 14:28:37;;;;;;;2.63;0.95;;;21.60;94.50;;;;;;5024111;28;20026;-74
2021/05/20 14:31:03;;;;;;;7.78;0.82;;;21.30;95.70;;;;;;5022990;28;20048;-74
2021/05/20 14:33:29;;;;;;;0.63;0.57;;;21.00;95.30;;;;;;5024598;28;20030;-73
2021/05/20 14:35:56;;;;;;;0.20;0.20;;;20.70;94.40;;;;;;5025295;28;20045;-75
2021/05/20 14:38:24;;;;;;;1.67;0.70;;;20.60;94.50;;;;;;5025722;28;20022;-76
2021/05/20 14:40:50;;;;;;;0.40;0.40;;;20.90;94.70;;;;;;5024292;28;20026;-76
2021/05/20 14:43:16;;;;;;;0.60;0.30;;;21.40;92.20;;;;;;5025457;28;20466;-74
2021/05/20 14:45:43;;;;;;;0.57;0.50;;;21.90;94.00;;;;;;5026025;28;20057;-76
2021/05/20 14:48:09;;;;;;;1.48;0.28;;;22.40;93.80;;;;;;5025914;28;20760;-76
2021/05/20 14:50:39;;;;;;;0.40;0.30;;;22.90;94.30;;;;;;5026134;28;20037;-77
2021/05/20 14:53:09;;;;;;;0.30;0.20;;;23.20;93.00;;;;;;5027608;28;20017;-71
2021/05/20 14:55:56;;;;;;;10.35;0.63;;;23.50;92.30;;;;;;5026540;28;20022;-74
2021/05/20 15:06:35;;;;;;;1.10;0.73;;;23.70;87.70;;;;;;5046669;28;20032;-74
2021/05/20 15:09:07;;;;;;;2.15;0.98;;;23.50;84.70;;;;;;5046458;28;20057;-78
2021/05/20 15:11:39;;;;;;;1.45;1.00;;;23.10;87.80;;;;;;5046785;28;20454;-77
2021/05/20 15:14:12;;;;;;;2.83;1.05;;;23.00;89.90;;;;;;5028121;28;20033;-73
2021/05/20 15:17:21;;;;;;;0.75;0.70;;;23.10;90.20;;;;;;5028705;28;20469;-75
2021/05/20 15:19:26;;;;;;;1.20;1.02;;;23.10;90.30;;;;;;5040718;28;20096;-79
2021/05/20 15:21:52;;;;;;;1.75;1.17;;;23.00;84.10;;;;;;5028494;28;20038;-79